Gil Vicente — CSKG — position and weather

sailwx.info

Track history (hours):
 
Tides and Currents Weather Stations Pressure Air Temp Water Temp Dewpoint Dewpoint Depression Visibility Wind Speed Wind Dir Waves Ship Positions

Gil Vicente

Last reported at 2017-Apr-24 09:30 UTC. Time now 2017-Apr-24 09:59 UTC.
Position N 38°39' W 009°05'.

Length 49 m.

Type: Passenger vessel. MMSI: 263701390.

Date/timePositionNaut miles runAvg speedWind from/ knotsBaromVisibWave heightAir tempDewpointWater temp
2017-Apr-24 09:30N 38°39' W 009°05'0 0.1
2017-Apr-24 09:00N 38°39' W 009°05'3 6.2
2017-Apr-24 08:30N 38°41' W 009°08'3 6.0
2017-Apr-24 08:00N 38°39' W 009°05'4 8.3
2017-Apr-24 07:30N 38°42' W 009°08'3 6.2
2017-Apr-24 07:00N 38°40' W 009°06'0 0.4
2017-Apr-24 06:30N 38°40' W 009°06'1 2.9
2017-Apr-24 06:00N 38°39' W 009°05'  
2017-Apr-21 20:32N 38°39' W 009°05'0 0.0
2017-Apr-21 20:31N 38°39' W 009°05'4 8.4
2017-Apr-21 20:01N 38°42' W 009°08'4 8.3
2017-Apr-21 19:31N 38°39' W 009°05'2 3.9
2017-Apr-21 19:00N 38°40' W 009°07'1 2.1
2017-Apr-21 18:31N 38°41' W 009°07'1 2.3
2017-Apr-21 18:01N 38°40' W 009°07'1 1.1
2017-Apr-21 17:31N 38°40' W 009°06'3 6.1
2017-Apr-21 17:01N 38°42' W 009°08'4 8.3
2017-Apr-21 16:31N 38°39' W 009°05'4 8.2
2017-Apr-21 16:00N 38°42' W 009°08'3 5.0
2017-Apr-21 15:27N 38°40' W 009°07'2 4.1
2017-Apr-21 15:01N 38°41' W 009°08'3 6.4
2017-Apr-21 14:30N 38°39' W 009°05'0 0.0
2017-Apr-21 09:11N 38°39' W 009°05'0 0.6
2017-Apr-21 09:00N 38°39' W 009°05'3 6.8
2017-Apr-21 08:31N 38°41' W 009°08'3 6.6
2017-Apr-21 08:00N 38°39' W 009°05'4 8.3
2017-Apr-21 07:30N 38°42' W 009°08'3 6.4
2017-Apr-21 06:59N 38°39' W 009°06'1 1.5
2017-Apr-21 06:30N 38°40' W 009°07'2 3.4
2017-Apr-21 06:00N 38°39' W 009°05'0 0.0
2017-Apr-21 05:30N 38°39' W 009°05'0 0.0
2017-Apr-20 19:19N 38°39' W 009°05'413.7
2017-Apr-20 19:00N 38°42' W 009°08'4 8.3
2017-Apr-20 18:30N 38°39' W 009°05'4 8.5
2017-Apr-20 18:00N 38°42' W 009°08'4 8.3
2017-Apr-20 17:30N 38°39' W 009°05'4 7.9
2017-Apr-20 17:00N 38°42' W 009°08'2 3.9
2017-Apr-20 16:30N 38°40' W 009°08'0 0.1
2017-Apr-20 16:00N 38°40' W 009°08'3 5.2
2017-Apr-20 15:30N 38°39' W 009°05'0 0.0
2017-Apr-20 08:51N 38°39' W 009°05'3 8.6
2017-Apr-20 08:30N 38°41' W 009°08'3 6.1
2017-Apr-20 08:00N 38°39' W 009°05'4 8.3
2017-Apr-20 07:30N 38°42' W 009°08'4 7.7
2017-Apr-20 07:00N 38°39' W 009°05'2 4.9
2017-Apr-20 06:30N 38°41' W 009°08'3 4.5
2017-Apr-20 05:56N 38°39' W 009°05'0 0.0
2017-Apr-19 19:58N 38°39' W 009°05'4 8.8
2017-Apr-19 19:31N 38°42' W 009°08'4 8.1
2017-Apr-19 19:00N 38°39' W 009°05'4 8.5
2017-Apr-19 18:31N 38°42' W 009°08'4 8.2
2017-Apr-19 18:00N 38°39' W 009°05'4 7.6
2017-Apr-19 17:30N 38°42' W 009°08'2 3.2
2017-Apr-19 17:01N 38°41' W 009°07'1 2.8
2017-Apr-19 16:31N 38°40' W 009°06'3 6.1
2017-Apr-19 16:00N 38°42' W 009°08'4 8.4
2017-Apr-19 15:31N 38°39' W 009°05'3 6.9
2017-Apr-19 15:01N 38°42' W 009°08'3 6.5
2017-Apr-19 14:29N 38°39' W 009°05'0 0.0
2017-Apr-19 10:18N 38°39' W 009°05'411.9
2017-Apr-19 10:00N 38°42' W 009°08'3 6.2
2017-Apr-19 09:30N 38°39' W 009°05'0 0.8
2017-Apr-19 09:00N 38°39' W 009°05'4 7.9
2017-Apr-19 08:30N 38°42' W 009°08'2 4.7
2017-Apr-19 08:00N 38°40' W 009°07'1 1.1
2017-Apr-19 07:30N 38°40' W 009°07'3 5.5
2017-Apr-19 07:00N 38°42' W 009°08'4 8.3
2017-Apr-19 06:30N 38°39' W 009°05'4 8.3
2017-Apr-19 06:00N 38°42' W 009°08'4 8.3
2017-Apr-19 05:30N 38°39' W 009°05'3 6.4
2017-Apr-19 05:00N 38°41' W 009°08'3 6.5
2017-Apr-19 04:30N 38°39' W 009°05'0 0.0
2017-Apr-18 22:55N 38°39' W 009°05'410.0
2017-Apr-18 22:30N 38°42' W 009°08'4 8.3
2017-Apr-18 22:00N 38°39' W 009°05'3 7.0
2017-Apr-18 21:30N 38°42' W 009°08'3 7.0
2017-Apr-18 21:00N 38°39' W 009°05'3 6.7
2017-Apr-18 20:30N 38°42' W 009°08'3 6.6
2017-Apr-18 20:00N 38°39' W 009°05'0 0.0
2017-Apr-18 19:30N 38°39' W 009°05'4 8.3
2017-Apr-18 19:00N 38°42' W 009°08'4 8.3
2017-Apr-18 18:30N 38°39' W 009°05'4 8.4
2017-Apr-18 18:00N 38°42' W 009°08'4 8.3
2017-Apr-18 17:30N 38°39' W 009°05'4 7.4
2017-Apr-18 17:00N 38°42' W 009°08'2 4.2
2017-Apr-18 16:30N 38°40' W 009°07'0 0.9
2017-Apr-18 16:00N 38°40' W 009°07'2 0.4
2017-Apr-18 10:07N 38°39' W 009°05'0 0.1
2017-Apr-18 10:00N 38°39' W 009°05'0 0.0
2017-Apr-18 09:30N 38°39' W 009°05'3 6.6
2017-Apr-18 09:01N 38°42' W 009°08'3 5.9
2017-Apr-18 08:30N 38°39' W 009°05'3 5.9
2017-Apr-18 08:00N 38°42' W 009°08'3 6.7
2017-Apr-18 07:30N 38°39' W 009°05'4 8.3
2017-Apr-18 07:00N 38°42' W 009°08'4 8.3
2017-Apr-18 06:30N 38°39' W 009°05'3 5.7
2017-Apr-18 06:00N 38°41' W 009°08'3 5.6
2017-Apr-18 05:30N 38°39' W 009°05'0 0.0
2017-Apr-17 19:22N 38°39' W 009°05'411.6
2017-Apr-17 19:00N 38°42' W 009°08'4 8.4
2017-Apr-17 18:30N 38°39' W 009°05'4 8.4
2017-Apr-17 18:00N 38°42' W 009°08'4 8.3
2017-Apr-17 17:30N 38°39' W 009°05'4 7.8
2017-Apr-17 17:00N 38°42' W 009°08'2 4.6
2017-Apr-17 16:30N 38°40' W 009°07'0 0.1
2017-Apr-17 16:00N 38°40' W 009°07'2 3.8
2017-Apr-17 15:30N 38°39' W 009°05'0 0.0
2017-Apr-17 09:19N 38°39' W 009°05'310.9
2017-Apr-17 09:00N 38°42' W 009°08'3 5.6
2017-Apr-17 08:30N 38°39' W 009°06'3 5.2
2017-Apr-17 08:00N 38°41' W 009°08'3 6.6
2017-Apr-17 07:30N 38°39' W 009°05'4 8.3
2017-Apr-17 07:00N 38°42' W 009°08'4 8.4
2017-Apr-17 06:30N 38°39' W 009°05'3 6.7
2017-Apr-17 06:00N 38°42' W 009°08'3 6.7
2017-Apr-17 05:30N 38°39' W 009°05'0 0.0
2017-Apr-15 20:49N 38°39' W 009°05'310.8
2017-Apr-15 20:30N 38°41' W 009°08'3 5.5
2017-Apr-15 20:01N 38°39' W 009°06'1 1.3
2017-Apr-15 19:30N 38°39' W 009°05'3 6.9
2017-Apr-15 19:00N 38°42' W 009°08'3 5.1
2017-Apr-15 18:31N 38°40' W 009°06'3 5.1
2017-Apr-15 18:01N 38°42' W 009°08'3 5.9
2017-Apr-15 17:30N 38°39' W 009°06'3 6.2
2017-Apr-15 17:01N 38°42' W 009°08'3 5.8
2017-Apr-15 16:30N 38°39' W 009°06'3 5.4
2017-Apr-15 16:01N 38°41' W 009°08'3 5.2
2017-Apr-15 15:30N 38°39' W 009°06'3 5.8
2017-Apr-15 15:01N 38°42' W 009°08'3 6.3
2017-Apr-15 14:30N 38°39' W 009°05'1 0.5
2017-Apr-15 13:31N 38°39' W 009°05'3 6.9
2017-Apr-15 13:00N 38°42' W 009°08'3 6.0
2017-Apr-15 12:29N 38°39' W 009°05'0 0.8
2017-Apr-15 12:00N 38°39' W 009°05'0 0.0
2017-Apr-15 11:31N 38°39' W 009°05'0 0.0
2017-Apr-15 11:01N 38°39' W 009°05'0 0.0
2017-Apr-15 10:30N 38°39' W 009°05'0 0.0
2017-Apr-15 10:00N 38°39' W 009°05'3 7.0
2017-Apr-15 09:31N 38°42' W 009°08'3 5.2
2017-Apr-15 09:00N 38°40' W 009°06'2 4.8
2017-Apr-15 08:30N 38°41' W 009°08'3 5.9
2017-Apr-15 07:59N 38°39' W 009°05'3 6.5
2017-Apr-15 07:31N 38°41' W 009°08'3 5.6
2017-Apr-15 07:00N 38°39' W 009°06'1 1.1
2017-Apr-15 06:30N 38°40' W 009°06'1 2.2
2017-Apr-15 06:00N 38°40' W 009°07'1 1.4
2017-Apr-15 05:30N 38°40' W 009°06'1 2.9
2017-Apr-15 05:00N 38°41' W 009°08'3 5.6
2017-Apr-15 04:30N 38°39' W 009°05'  
Track history (hours):
 
Tides and Currents Weather Stations Pressure Air Temp Water Temp Dewpoint Dewpoint Depression Visibility Wind Speed Wind Dir Waves Ship Positions

Gil Vicente

Last reported at 2017-Apr-24 09:30 UTC. Time now 2017-Apr-24 09:59 UTC.
Position N 38°39' W 009°05'.

Length 49 m.

Type: Passenger vessel. MMSI: 263701390.

Date/timePositionNaut miles runAvg speedWind from/ knotsBaromVisibWave heightAir tempDewpointWater temp
2017-Apr-24 09:30N 38°39' W 009°05'0 0.1
2017-Apr-24 09:00N 38°39' W 009°05'3 6.2
2017-Apr-24 08:30N 38°41' W 009°08'3 6.0
2017-Apr-24 08:00N 38°39' W 009°05'4 8.3
2017-Apr-24 07:30N 38°42' W 009°08'3 6.2
2017-Apr-24 07:00N 38°40' W 009°06'0 0.4
2017-Apr-24 06:30N 38°40' W 009°06'1 2.9
2017-Apr-24 06:00N 38°39' W 009°05'  
2017-Apr-21 20:32N 38°39' W 009°05'0 0.0
2017-Apr-21 20:31N 38°39' W 009°05'4 8.4
2017-Apr-21 20:01N 38°42' W 009°08'4 8.3
2017-Apr-21 19:31N 38°39' W 009°05'2 3.9
2017-Apr-21 19:00N 38°40' W 009°07'1 2.1
2017-Apr-21 18:31N 38°41' W 009°07'1 2.3
2017-Apr-21 18:01N 38°40' W 009°07'1 1.1
2017-Apr-21 17:31N 38°40' W 009°06'3 6.1
2017-Apr-21 17:01N 38°42' W 009°08'4 8.3
2017-Apr-21 16:31N 38°39' W 009°05'4 8.2
2017-Apr-21 16:00N 38°42' W 009°08'3 5.0
2017-Apr-21 15:27N 38°40' W 009°07'2 4.1
2017-Apr-21 15:01N 38°41' W 009°08'3 6.4
2017-Apr-21 14:30N 38°39' W 009°05'0 0.0
2017-Apr-21 09:11N 38°39' W 009°05'0 0.6
2017-Apr-21 09:00N 38°39' W 009°05'3 6.8
2017-Apr-21 08:31N 38°41' W 009°08'3 6.6
2017-Apr-21 08:00N 38°39' W 009°05'4 8.3
2017-Apr-21 07:30N 38°42' W 009°08'3 6.4
2017-Apr-21 06:59N 38°39' W 009°06'1 1.5
2017-Apr-21 06:30N 38°40' W 009°07'2 3.4
2017-Apr-21 06:00N 38°39' W 009°05'0 0.0
2017-Apr-21 05:30N 38°39' W 009°05'0 0.0
2017-Apr-20 19:19N 38°39' W 009°05'413.7
2017-Apr-20 19:00N 38°42' W 009°08'4 8.3
2017-Apr-20 18:30N 38°39' W 009°05'4 8.5
2017-Apr-20 18:00N 38°42' W 009°08'4 8.3
2017-Apr-20 17:30N 38°39' W 009°05'4 7.9
2017-Apr-20 17:00N 38°42' W 009°08'2 3.9
2017-Apr-20 16:30N 38°40' W 009°08'0 0.1
2017-Apr-20 16:00N 38°40' W 009°08'3 5.2
2017-Apr-20 15:30N 38°39' W 009°05'0 0.0
2017-Apr-20 08:51N 38°39' W 009°05'3 8.6
2017-Apr-20 08:30N 38°41' W 009°08'3 6.1
2017-Apr-20 08:00N 38°39' W 009°05'4 8.3
2017-Apr-20 07:30N 38°42' W 009°08'4 7.7
2017-Apr-20 07:00N 38°39' W 009°05'2 4.9
2017-Apr-20 06:30N 38°41' W 009°08'3 4.5
2017-Apr-20 05:56N 38°39' W 009°05'0 0.0
2017-Apr-19 19:58N 38°39' W 009°05'4 8.8
2017-Apr-19 19:31N 38°42' W 009°08'4 8.1
2017-Apr-19 19:00N 38°39' W 009°05'4 8.5
2017-Apr-19 18:31N 38°42' W 009°08'4 8.2
2017-Apr-19 18:00N 38°39' W 009°05'4 7.6
2017-Apr-19 17:30N 38°42' W 009°08'2 3.2
2017-Apr-19 17:01N 38°41' W 009°07'1 2.8
2017-Apr-19 16:31N 38°40' W 009°06'3 6.1
2017-Apr-19 16:00N 38°42' W 009°08'4 8.4
2017-Apr-19 15:31N 38°39' W 009°05'3 6.9
2017-Apr-19 15:01N 38°42' W 009°08'3 6.5
2017-Apr-19 14:29N 38°39' W 009°05'0 0.0
2017-Apr-19 10:18N 38°39' W 009°05'411.9
2017-Apr-19 10:00N 38°42' W 009°08'3 6.2
2017-Apr-19 09:30N 38°39' W 009°05'0 0.8
2017-Apr-19 09:00N 38°39' W 009°05'4 7.9
2017-Apr-19 08:30N 38°42' W 009°08'2 4.7
2017-Apr-19 08:00N 38°40' W 009°07'1 1.1
2017-Apr-19 07:30N 38°40' W 009°07'3 5.5
2017-Apr-19 07:00N 38°42' W 009°08'4 8.3
2017-Apr-19 06:30N 38°39' W 009°05'4 8.3
2017-Apr-19 06:00N 38°42' W 009°08'4 8.3
2017-Apr-19 05:30N 38°39' W 009°05'3 6.4
2017-Apr-19 05:00N 38°41' W 009°08'3 6.5
2017-Apr-19 04:30N 38°39' W 009°05'0 0.0
2017-Apr-18 22:55N 38°39' W 009°05'410.0
2017-Apr-18 22:30N 38°42' W 009°08'4 8.3
2017-Apr-18 22:00N 38°39' W 009°05'3 7.0
2017-Apr-18 21:30N 38°42' W 009°08'3 7.0
2017-Apr-18 21:00N 38°39' W 009°05'3 6.7
2017-Apr-18 20:30N 38°42' W 009°08'3 6.6
2017-Apr-18 20:00N 38°39' W 009°05'0 0.0
2017-Apr-18 19:30N 38°39' W 009°05'4 8.3
2017-Apr-18 19:00N 38°42' W 009°08'4 8.3
2017-Apr-18 18:30N 38°39' W 009°05'4 8.4
2017-Apr-18 18:00N 38°42' W 009°08'4 8.3
2017-Apr-18 17:30N 38°39' W 009°05'4 7.4
2017-Apr-18 17:00N 38°42' W 009°08'2 4.2
2017-Apr-18 16:30N 38°40' W 009°07'0 0.9
2017-Apr-18 16:00N 38°40' W 009°07'2 0.4
2017-Apr-18 10:07N 38°39' W 009°05'0 0.1
2017-Apr-18 10:00N 38°39' W 009°05'0 0.0
2017-Apr-18 09:30N 38°39' W 009°05'3 6.6
2017-Apr-18 09:01N 38°42' W 009°08'3 5.9
2017-Apr-18 08:30N 38°39' W 009°05'3 5.9
2017-Apr-18 08:00N 38°42' W 009°08'3 6.7
2017-Apr-18 07:30N 38°39' W 009°05'4 8.3
2017-Apr-18 07:00N 38°42' W 009°08'4 8.3
2017-Apr-18 06:30N 38°39' W 009°05'3 5.7
2017-Apr-18 06:00N 38°41' W 009°08'3 5.6
2017-Apr-18 05:30N 38°39' W 009°05'0 0.0
2017-Apr-17 19:22N 38°39' W 009°05'411.6
2017-Apr-17 19:00N 38°42' W 009°08'4 8.4
2017-Apr-17 18:30N 38°39' W 009°05'4 8.4
2017-Apr-17 18:00N 38°42' W 009°08'4 8.3
2017-Apr-17 17:30N 38°39' W 009°05'4 7.8
2017-Apr-17 17:00N 38°42' W 009°08'2 4.6
2017-Apr-17 16:30N 38°40' W 009°07'0 0.1
2017-Apr-17 16:00N 38°40' W 009°07'2 3.8
2017-Apr-17 15:30N 38°39' W 009°05'0 0.0
2017-Apr-17 09:19N 38°39' W 009°05'310.9
2017-Apr-17 09:00N 38°42' W 009°08'3 5.6
2017-Apr-17 08:30N 38°39' W 009°06'3 5.2
2017-Apr-17 08:00N 38°41' W 009°08'3 6.6
2017-Apr-17 07:30N 38°39' W 009°05'4 8.3
2017-Apr-17 07:00N 38°42' W 009°08'4 8.4
2017-Apr-17 06:30N 38°39' W 009°05'3 6.7
2017-Apr-17 06:00N 38°42' W 009°08'3 6.7
2017-Apr-17 05:30N 38°39' W 009°05'0 0.0
2017-Apr-15 20:49N 38°39' W 009°05'310.8
2017-Apr-15 20:30N 38°41' W 009°08'3 5.5
2017-Apr-15 20:01N 38°39' W 009°06'1 1.3
2017-Apr-15 19:30N 38°39' W 009°05'3 6.9
2017-Apr-15 19:00N 38°42' W 009°08'3 5.1
2017-Apr-15 18:31N 38°40' W 009°06'3 5.1
2017-Apr-15 18:01N 38°42' W 009°08'3 5.9
2017-Apr-15 17:30N 38°39' W 009°06'3 6.2
2017-Apr-15 17:01N 38°42' W 009°08'3 5.8
2017-Apr-15 16:30N 38°39' W 009°06'3 5.4
2017-Apr-15 16:01N 38°41' W 009°08'3 5.2
2017-Apr-15 15:30N 38°39' W 009°06'3 5.8
2017-Apr-15 15:01N 38°42' W 009°08'3 6.3
2017-Apr-15 14:30N 38°39' W 009°05'1 0.5
2017-Apr-15 13:31N 38°39' W 009°05'3 6.9
2017-Apr-15 13:00N 38°42' W 009°08'3 6.0
2017-Apr-15 12:29N 38°39' W 009°05'0 0.8
2017-Apr-15 12:00N 38°39' W 009°05'0 0.0
2017-Apr-15 11:31N 38°39' W 009°05'0 0.0
2017-Apr-15 11:01N 38°39' W 009°05'0 0.0
2017-Apr-15 10:30N 38°39' W 009°05'0 0.0
2017-Apr-15 10:00N 38°39' W 009°05'3 7.0
2017-Apr-15 09:31N 38°42' W 009°08'3 5.2
2017-Apr-15 09:00N 38°40' W 009°06'2 4.8
2017-Apr-15 08:30N 38°41' W 009°08'3 5.9
2017-Apr-15 07:59N 38°39' W 009°05'3 6.5
2017-Apr-15 07:31N 38°41' W 009°08'3 5.6
2017-Apr-15 07:00N 38°39' W 009°06'1 1.1
2017-Apr-15 06:30N 38°40' W 009°06'1 2.2
2017-Apr-15 06:00N 38°40' W 009°07'1 1.4
2017-Apr-15 05:30N 38°40' W 009°06'1 2.9
2017-Apr-15 05:00N 38°41' W 009°08'3 5.6
2017-Apr-15 04:30N 38°39' W 009°05'  

Dump ship's entire track history